Time;durP1;ratioP1;P1;durP2;ratioP2;P2;SDS_P1;SDS_P2;PMS_P1;PMS_P2;Temp;Humidity;BMP_temperature;BMP_pressure;BME280_temperature;BME280_humidity;BME280_pressure;Samples;Min_cycle;Max_cycle;Signal;HPM_P1;HPM_P2
2021/09/11 00:02:56;;;;;;;17.05;6.20;;;;;;;19.93;60.42;100608.64;4705004;63;21231;-80
2021/09/11 00:08:02;;;;;;;10.88;5.00;;;;;;;19.90;60.88;100606.30;4705355;63;21220;-81
2021/09/11 00:13:07;;;;;;;30.80;7.72;;;;;;;19.91;60.70;100607.14;4705330;63;21579;-81
2021/09/11 00:18:13;;;;;;;40.28;7.70;;;;;;;19.91;61.04;100606.63;4705273;63;21669;-80
2021/09/11 00:23:19;;;;;;;63.98;8.38;;;;;;;19.97;61.40;100602.41;4705534;63;21196;-81
2021/09/11 00:28:25;;;;;;;19.12;7.30;;;;;;;19.91;60.92;100603.95;4705383;63;21184;-80
2021/09/11 00:33:31;;;;;;;14.47;5.58;;;;;;;19.84;61.26;100604.84;4705546;63;21192;-80
2021/09/11 00:38:36;;;;;;;57.98;9.60;;;;;;;19.79;61.33;100602.69;4705498;63;21192;-81
2021/09/11 00:43:52;;;;;;;44.40;8.63;;;;;;;19.68;61.38;100604.44;4705344;63;21192;-80
2021/09/11 00:48:58;;;;;;;39.38;7.08;;;;;;;19.58;61.34;100602.45;4705140;63;21193;-81
2021/09/11 00:54:03;;;;;;;12.70;5.28;;;;;;;19.47;61.56;100599.63;4705091;63;21563;-81
2021/09/11 00:59:09;;;;;;;12.35;6.83;;;;;;;19.46;62.11;100601.98;4704180;62;21224;-81
2021/09/11 01:04:15;;;;;;;12.40;6.53;;;;;;;19.51;62.46;100604.18;4699765;63;21267;-81
2021/09/11 01:09:21;;;;;;;21.70;10.50;;;;;;;19.51;62.28;100598.31;4699390;63;21605;-81
2021/09/11 01:14:27;;;;;;;12.95;6.47;;;;;;;19.50;62.38;100593.95;4699605;63;21231;-80
2021/09/11 01:19:32;;;;;;;8.65;6.25;;;;;;;19.44;62.18;100592.42;4689173;63;21232;-80
2021/09/11 01:24:38;;;;;;;12.15;6.35;;;;;;;19.38;62.59;100599.84;4662065;63;21185;-80
2021/09/11 01:29:45;;;;;;;11.80;6.28;;;;;;;19.34;62.75;100602.03;4634734;63;21271;-81
2021/09/11 01:34:52;;;;;;;14.40;6.92;;;;;;;19.26;62.57;100607.41;4662167;62;21590;-81
2021/09/11 01:39:58;;;;;;;14.18;6.28;;;;;;;19.15;62.75;100601.92;4662541;63;21509;-80
2021/09/11 01:45:12;;;;;;;10.90;5.75;;;;;;;19.02;62.99;100599.45;4630885;63;21337;-81
2021/09/11 01:50:22;;;;;;;15.93;5.65;;;;;;;18.95;63.32;100612.69;4658980;63;21224;-80
2021/09/11 01:55:27;;;;;;;12.85;6.00;;;;;;;18.90;63.29;100609.20;4659583;63;21316;-81
2021/09/11 02:00:33;;;;;;;9.73;5.87;;;;;;;18.91;63.85;100610.88;4659810;63;21248;-80
2021/09/11 02:05:39;;;;;;;8.98;6.50;;;;;;;18.94;64.18;100613.19;4659936;63;21529;-81
2021/09/11 02:10:44;;;;;;;11.93;6.30;;;;;;;18.96;64.37;100604.98;4659700;63;21212;-80
2021/09/11 02:15:50;;;;;;;9.80;6.45;;;;;;;18.95;64.36;100612.69;4659768;63;21169;-79
2021/09/11 02:20:56;;;;;;;8.00;5.78;;;;;;;18.95;64.40;100611.35;4676113;63;21240;-80
2021/09/11 02:26:02;;;;;;;11.80;6.20;;;;;;;18.90;64.35;100608.37;4696361;63;21288;-80
2021/09/11 02:31:08;;;;;;;14.78;6.58;;;;;;;18.80;64.29;100608.53;4696408;63;21833;-82
2021/09/11 02:36:14;;;;;;;9.00;5.87;;;;;;;18.73;64.72;100600.86;4696394;63;21168;-82
2021/09/11 02:41:19;;;;;;;22.62;6.15;;;;;;;18.66;64.53;100610.56;4696280;63;22587;-81
2021/09/11 02:46:25;;;;;;;8.23;6.20;;;;;;;18.63;65.14;100605.56;4696746;63;21289;-81
2021/09/11 02:51:31;;;;;;;9.25;6.53;;;;;;;18.60;65.34;100601.88;4696567;63;22515;-81
2021/09/11 02:56:37;;;;;;;9.70;5.83;;;;;;;18.58;65.43;100595.34;4696365;63;21232;-81
2021/09/11 03:01:43;;;;;;;10.18;6.85;;;;;;;18.62;65.79;100601.21;4696460;63;21320;-80
2021/09/11 03:06:49;;;;;;;12.18;6.75;;;;;;;18.66;66.07;100602.52;4696388;63;21751;-81
2021/09/11 03:11:54;;;;;;;16.07;7.65;;;;;;;18.68;66.09;100595.66;4696267;63;21988;-81
2021/09/11 03:17:01;;;;;;;23.00;8.05;;;;;;;18.71;65.98;100594.83;4696321;63;21873;-82
2021/09/11 03:22:07;;;;;;;11.65;7.85;;;;;;;18.72;65.92;100596.50;4647676;62;21224;-81
2021/09/11 03:27:13;;;;;;;23.77;8.13;;;;;;;18.69;66.09;100589.30;4659407;63;21232;-81
2021/09/11 03:32:19;;;;;;;35.00;8.48;;;;;;;18.67;66.17;100595.33;4659321;63;22586;-80
2021/09/11 03:37:24;;;;;;;29.83;7.03;;;;;;;18.65;66.41;100595.99;4659297;63;21241;-81
2021/09/11 03:42:30;;;;;;;27.43;7.33;;;;;;;18.56;66.18;100600.00;4659721;63;22519;-81
2021/09/11 03:47:37;;;;;;;13.23;7.60;;;;;;;18.35;66.33;100600.16;4659272;63;21949;-79
2021/09/11 03:52:42;;;;;;;15.13;7.63;;;;;;;18.30;67.07;100589.98;4659477;63;21228;-82
2021/09/11 03:57:48;;;;;;;12.13;6.60;;;;;;;18.35;67.53;100590.28;4659543;63;21734;-81
2021/09/11 04:02:54;;;;;;;20.70;8.13;;;;;;;18.45;67.70;100599.52;4659302;63;21221;-81
2021/09/11 04:08:00;;;;;;;17.73;8.10;;;;;;;18.38;67.74;100598.49;4659232;63;21232;-82
2021/09/11 04:13:06;;;;;;;15.13;8.47;;;;;;;18.20;68.19;100586.10;4660374;63;21647;-81
2021/09/11 04:18:12;;;;;;;19.53;10.00;;;;;;;18.15;68.77;100592.98;4662356;63;21681;-82
2021/09/11 04:23:18;;;;;;;19.30;9.07;;;;;;;18.24;69.40;100587.95;4664591;62;21540;-88
2021/09/11 04:28:23;;;;;;;16.77;8.40;;;;;;;18.34;69.47;100591.29;4664034;63;21385;-82
2021/09/11 04:33:29;;;;;;;22.57;10.40;;;;;;;18.41;69.53;100588.80;4663857;63;21515;-81
2021/09/11 04:38:36;;;;;;;20.25;8.90;;;;;;;18.50;69.92;100592.63;4663710;63;21260;-84
2021/09/11 04:43:42;;;;;;;38.53;10.55;;;;;;;18.60;70.02;100590.66;4663841;63;21188;-80
2021/09/11 04:48:48;;;;;;;16.25;8.45;;;;;;;18.68;69.99;100586.28;4671768;63;21267;-82
2021/09/11 04:53:54;;;;;;;14.17;8.27;;;;;;;18.70;69.88;100582.44;4668240;63;21505;-80
2021/09/11 04:59:00;;;;;;;28.92;9.03;;;;;;;18.67;69.58;100592.64;4671927;63;21121;-80
2021/09/11 05:04:07;;;;;;;14.63;8.73;;;;;;;18.68;70.13;100589.80;4672510;63;21664;-79
2021/09/11 05:09:12;;;;;;;11.30;7.78;;;;;;;18.72;70.17;100594.33;4672725;63;21584;-81
2021/09/11 05:14:18;;;;;;;20.13;8.93;;;;;;;18.65;70.03;100599.51;4666571;63;21506;-80
2021/09/11 05:19:25;;;;;;;16.55;9.70;;;;;;;18.50;70.31;100607.36;4665879;63;21252;-83
2021/09/11 05:24:31;;;;;;;25.88;10.80;;;;;;;18.49;71.04;100606.19;4700999;62;21169;-81
2021/09/11 05:29:36;;;;;;;17.27;9.73;;;;;;;18.63;71.56;100604.23;4710796;62;21312;-83
2021/09/11 05:34:42;;;;;;;18.23;9.80;;;;;;;18.77;71.82;100604.88;4705717;62;21264;-85
2021/09/11 05:39:48;;;;;;;21.55;9.73;;;;;;;18.83;71.83;100597.98;4699322;63;21521;-81
2021/09/11 05:44:55;;;;;;;17.32;7.67;;;;;;;18.89;71.83;100598.66;4698504;63;21591;-79
2021/09/11 05:50:01;;;;;;;16.27;8.50;;;;;;;19.00;72.04;100603.64;4710533;62;21242;-81
2021/09/11 05:55:11;;;;;;;18.42;10.23;;;;;;;18.97;72.30;100607.50;4712944;62;21207;-83
2021/09/11 06:00:15;;;;;;;18.48;9.80;;;;;;;18.98;72.56;100608.34;4712874;62;21248;-83
2021/09/11 06:05:21;;;;;;;14.53;10.45;;;;;;;19.02;72.76;100606.99;4705865;62;21251;-82
2021/09/11 06:10:27;;;;;;;13.35;9.75;;;;;;;19.13;72.87;100609.30;4701592;63;21223;-86
2021/09/11 06:15:33;;;;;;;14.25;10.00;;;;;;;19.24;72.36;100602.25;4701620;63;21840;-82
2021/09/11 06:20:39;;;;;;;15.05;9.30;;;;;;;19.25;72.09;100603.89;4701599;63;21148;-83
2021/09/11 06:25:45;;;;;;;15.03;9.70;;;;;;;19.26;72.39;100604.23;4668288;63;21658;-84
2021/09/11 06:30:51;;;;;;;16.25;9.80;;;;;;;19.38;72.76;100613.26;4632739;63;21316;-82
2021/09/11 06:35:57;;;;;;;22.35;10.70;;;;;;;19.60;72.96;100605.80;4595661;64;21304;-82
2021/09/11 06:41:03;;;;;;;14.40;10.10;;;;;;;20.00;73.43;100593.50;4608262;62;21568;-82
2021/09/11 06:46:08;;;;;;;11.55;9.58;;;;;;;20.33;72.70;100606.16;4664292;62;21214;-87
2021/09/11 06:51:14;;;;;;;12.37;8.80;;;;;;;20.38;71.81;100602.14;4675275;62;21282;-91
2021/09/11 06:56:21;;;;;;;16.55;10.40;;;;;;;20.33;71.59;100602.13;4598475;63;21283;-82
2021/09/11 07:01:26;;;;;;;18.05;11.00;;;;;;;20.34;71.58;100606.48;4596871;64;22503;-89
2021/09/11 07:06:32;;;;;;;17.82;11.30;;;;;;;20.42;71.93;100606.98;4596949;64;21180;-83
2021/09/11 07:11:39;;;;;;;14.98;9.85;;;;;;;20.62;72.11;100601.95;4597211;64;21223;-85
2021/09/11 07:16:45;;;;;;;15.10;9.83;;;;;;;20.95;72.08;100600.58;4596728;64;21814;-84
2021/09/11 07:21:51;;;;;;;23.07;9.80;;;;;;;21.29;71.90;100612.68;4596401;64;21180;-85
2021/09/11 07:26:57;;;;;;;15.38;9.48;;;;;;;21.52;71.34;100612.59;4648067;63;21161;-88
2021/09/11 07:32:04;;;;;;;11.00;9.33;;;;;;;21.86;71.04;100616.81;4713581;62;21294;-81
2021/09/11 07:37:09;;;;;;;19.75;8.48;;;;;;;22.02;69.96;100630.59;4763935;62;21282;-82
2021/09/11 07:42:18;;;;;;;18.98;8.80;;;;;;;22.00;70.30;100648.28;4721218;62;21248;-82
2021/09/11 07:47:24;;;;;;;17.17;10.70;;;;;;;21.94;70.48;100645.50;4663173;62;21219;-85
2021/09/11 07:52:29;;;;;;;29.80;11.65;;;;;;;21.97;70.94;100652.70;4663134;63;21258;-83
2021/09/11 07:57:35;;;;;;;15.53;8.30;;;;;;;22.11;70.35;100646.97;4662569;63;22503;-82
2021/09/11 08:02:41;;;;;;;16.30;10.13;;;;;;;22.39;69.99;100654.62;4662633;63;21500;-86
2021/09/11 08:07:49;;;;;;;19.25;10.72;;;;;;;22.50;68.81;100647.03;4662583;63;21868;-85
2021/09/11 08:12:54;;;;;;;15.65;12.50;;;;;;;22.62;68.28;100656.26;4663265;63;21232;-84
2021/09/11 08:18:01;;;;;;;17.77;10.20;;;;;;;22.65;68.35;100670.70;4663820;63;21930;-84
2021/09/11 08:23:07;;;;;;;15.38;10.13;;;;;;;22.65;68.17;100676.93;4663971;62;21232;-84
2021/09/11 08:28:14;;;;;;;24.63;11.08;;;;;;;22.77;68.34;100682.66;4663696;63;21251;-84
2021/09/11 08:33:20;;;;;;;19.27;12.55;;;;;;;22.76;68.11;100680.99;4664259;63;21293;-85
2021/09/11 08:38:26;;;;;;;19.25;12.20;;;;;;;22.71;68.36;100680.73;4663817;63;21298;-83
2021/09/11 08:43:32;;;;;;;15.13;9.93;;;;;;;22.81;68.69;100686.65;4663563;63;21228;-85
2021/09/11 08:48:38;;;;;;;20.23;10.18;;;;;;;22.88;68.01;100693.45;4663691;63;21224;-84
2021/09/11 08:53:44;;;;;;;12.33;8.60;;;;;;;22.92;68.26;100676.67;4663556;63;21281;-84
2021/09/11 08:58:53;;;;;;;10.32;6.92;;;;;;;23.09;67.50;100686.14;4663446;62;21226;-77
2021/09/11 09:03:58;;;;;;;5.47;4.95;;;;;;;23.32;65.81;100687.25;4658708;63;21811;-78
2021/09/11 09:09:14;;;;;;;6.10;4.60;;;;;;;23.52;62.20;100692.81;4664514;62;21323;-78
2021/09/11 09:14:21;;;;;;;11.97;4.33;;;;;;;23.85;60.59;100696.48;4670228;63;21200;-77
2021/09/11 09:19:27;;;;;;;3.65;3.30;;;;;;;23.97;58.82;100704.04;4672260;63;21188;-76
2021/09/11 09:24:38;;;;;;;6.55;3.60;;;;;;;23.65;59.29;100703.68;4672252;61;21133;-76
2021/09/11 09:29:45;;;;;;;4.42;3.40;;;;;;;23.38;59.30;100709.38;4638983;63;21627;-76
2021/09/11 09:34:53;;;;;;;5.45;3.37;;;;;;;23.30;60.25;100712.25;4610097;64;21327;-82
2021/09/11 09:39:59;;;;;;;2.75;2.52;;;;;;;23.15;60.24;100712.86;4638732;63;21206;-82
2021/09/11 09:45:05;;;;;;;3.67;2.50;;;;;;;22.98;60.73;100706.08;4668881;63;21193;-82
2021/09/11 09:50:17;;;;;;;2.65;2.45;;;;;;;22.82;61.50;100705.84;4668755;63;21228;-83
2021/09/11 09:55:23;;;;;;;5.22;3.08;;;;;;;22.63;61.07;100699.20;4668915;63;21245;-82
2021/09/11 10:00:29;;;;;;;8.70;2.70;;;;;;;22.28;62.42;100699.59;4668649;63;21145;-83
2021/09/11 10:05:38;;;;;;;4.45;2.92;;;;;;;22.06;64.44;100700.56;4671699;63;21230;-82
2021/09/11 10:10:50;;;;;;;4.05;2.87;;;;;;;21.90;66.72;100699.41;4670575;63;21192;-82
2021/09/11 10:16:11;;;;;;;4.85;3.27;;;;;;;21.65;68.24;100693.50;4671747;63;21133;-83
2021/09/11 10:21:42;;;;;;;5.80;3.35;;;;;;;21.49;68.85;100689.14;4671184;63;21786;-82
2021/09/11 10:26:50;;;;;;;6.70;3.50;;;;;;;21.50;70.12;100688.13;4690889;61;21144;-82
2021/09/11 10:32:03;;;;;;;7.22;3.12;;;;;;;21.57;70.76;100681.47;4708827;62;21126;-83
2021/09/11 10:37:10;;;;;;;;;;;;;;;21.62;70.56;100687.14;4681317;62;22183;-83
2021/09/11 10:42:16;;;;;;;4.67;3.65;;;;;;;21.67;70.71;100699.53;4666886;63;20480;-81
2021/09/11 10:47:26;;;;;;;6.47;3.83;;;;;;;21.70;71.04;100701.32;4705920;63;21204;-84
2021/09/11 10:52:32;;;;;;;5.05;3.40;;;;;;;21.71;71.17;100693.57;4688074;63;21695;-81
2021/09/11 10:57:38;;;;;;;4.00;2.85;;;;;;;21.69;72.02;100695.61;4696240;63;21409;-82
2021/09/11 11:02:46;;;;;;;6.30;3.20;;;;;;;21.69;72.28;100682.69;4696095;63;21285;-84
2021/09/11 11:07:51;;;;;;;7.85;3.98;;;;;;;21.51;73.48;100687.61;4696307;63;21362;-85
2021/09/11 11:12:56;;;;;;;6.75;3.83;;;;;;;21.33;72.81;100671.83;4696138;63;21228;-82
2021/09/11 11:18:02;;;;;;;4.60;4.20;;;;;;;21.36;72.81;100671.47;4696459;63;21235;-83
2021/09/11 11:23:08;;;;;;;4.58;3.87;;;;;;;21.39;73.00;100668.38;4700008;63;21217;-86
2021/09/11 11:28:14;;;;;;;10.30;7.83;;;;;;;21.49;72.91;100663.58;4672064;62;21164;-84
2021/09/11 11:33:20;;;;;;;8.55;4.42;;;;;;;21.54;72.94;100650.91;4663686;63;21686;-83
2021/09/11 11:38:28;;;;;;;4.87;4.28;;;;;;;21.57;72.82;100636.55;4664642;63;21320;-81
2021/09/11 11:43:37;;;;;;;5.83;4.20;;;;;;;21.60;72.97;100629.45;4664239;63;21224;-81
2021/09/11 11:48:43;;;;;;;5.10;3.95;;;;;;;21.61;72.38;100619.01;4664098;63;21223;-85
2021/09/11 11:53:49;;;;;;;5.55;3.12;;;;;;;21.63;71.73;100622.86;4663924;63;21224;-83
2021/09/11 11:59:00;;;;;;;3.67;3.37;;;;;;;21.67;71.05;100623.66;4663780;63;21567;-82
2021/09/11 12:04:18;;;;;;;3.52;3.27;;;;;;;21.70;70.74;100621.06;4663673;63;21500;-82
2021/09/11 12:09:23;;;;;;;5.78;3.42;;;;;;;21.85;70.86;100625.08;4594084;64;21240;-84
2021/09/11 12:14:30;;;;;;;4.62;4.25;;;;;;;21.99;70.02;100626.44;4593994;64;21239;-84
2021/09/11 12:19:36;;;;;;;6.15;3.58;;;;;;;22.12;69.97;100631.64;4594292;64;21181;-85
2021/09/11 12:24:41;;;;;;;4.58;4.17;;;;;;;22.30;70.30;100632.04;4594391;64;22403;-87
2021/09/11 12:30:09;;;;;;;10.08;4.70;;;;;;;22.65;70.89;100632.96;4618376;63;21539;-83
2021/09/11 12:35:14;;;;;;;4.30;4.00;;;;;;;22.97;70.43;100628.88;4656608;63;21224;-85
2021/09/11 12:40:20;;;;;;;6.15;5.45;;;;;;;23.37;69.91;100613.78;4663757;63;21219;-86
2021/09/11 12:45:26;;;;;;;6.37;5.80;;;;;;;23.68;69.02;100612.78;4660110;63;21757;-85
2021/09/11 12:50:31;;;;;;;4.47;3.98;;;;;;;23.78;68.39;100623.23;4660010;63;21235;-86
2021/09/11 12:55:37;;;;;;;6.45;5.83;;;;;;;23.76;68.50;100617.19;4659888;63;21228;-83
2021/09/11 13:00:42;;;;;;;8.78;5.62;;;;;;;23.81;68.81;100624.19;4659894;63;21177;-83
2021/09/11 13:05:48;;;;;;;5.83;5.20;;;;;;;23.74;68.87;100627.36;4659903;63;21308;-84
2021/09/11 13:10:54;;;;;;;10.93;6.60;;;;;;;23.79;69.40;100631.13;4669156;63;21300;-86
2021/09/11 13:16:00;;;;;;;7.05;6.35;;;;;;;23.83;69.47;100625.62;4691229;63;21213;-83
2021/09/11 13:21:09;;;;;;;8.38;7.67;;;;;;;23.80;69.72;100625.22;4663481;63;21212;-82
2021/09/11 13:26:18;;;;;;;11.08;7.92;;;;;;;23.86;70.42;100632.48;4663531;62;21575;-82
2021/09/11 13:31:25;;;;;;;13.35;7.17;;;;;;;23.94;70.20;100639.08;4663274;63;21216;-86
2021/09/11 13:36:31;;;;;;;12.23;7.55;;;;;;;23.93;70.52;100632.01;4663477;63;21571;-84
2021/09/11 13:41:37;;;;;;;10.68;7.62;;;;;;;24.06;70.70;100621.75;4662007;63;21228;-83
2021/09/11 13:46:44;;;;;;;9.78;7.72;;;;;;;24.12;71.01;100616.89;4659795;63;21377;-85
2021/09/11 13:51:50;;;;;;;13.00;10.28;;;;;;;24.25;71.20;100617.45;4660329;63;21236;-83
2021/09/11 13:56:56;;;;;;;9.83;8.75;;;;;;;24.33;70.90;100619.44;4660558;63;21173;-82
2021/09/11 14:02:01;;;;;;;9.88;7.80;;;;;;;24.35;71.11;100618.71;4661658;63;21212;-82
2021/09/11 14:07:08;;;;;;;9.80;8.25;;;;;;;24.41;71.43;100613.01;4661972;63;21299;-82
2021/09/11 14:12:13;;;;;;;11.33;8.25;;;;;;;24.47;71.41;100616.22;4663900;63;21238;-84
2021/09/11 14:17:19;;;;;;;10.93;8.83;;;;;;;24.53;70.45;100608.12;4663876;63;21182;-83
2021/09/11 14:22:26;;;;;;;11.73;9.00;;;;;;;24.57;70.09;100586.91;4664530;63;21212;-82
2021/09/11 14:27:32;;;;;;;11.68;8.30;;;;;;;24.62;70.32;100583.56;4664394;62;21281;-81
2021/09/11 14:32:38;;;;;;;13.55;8.25;;;;;;;24.75;70.23;100583.02;4663700;63;21715;-84
2021/09/11 14:37:44;;;;;;;9.28;8.38;;;;;;;24.80;70.21;100586.46;4663736;63;21717;-84
2021/09/11 14:42:50;;;;;;;7.80;7.03;;;;;;;24.85;69.91;100588.02;4661622;63;21697;-84
2021/09/11 14:47:56;;;;;;;7.55;6.85;;;;;;;24.84;69.31;100577.72;4660286;63;21638;-85
2021/09/11 14:53:01;;;;;;;13.70;7.28;;;;;;;24.77;69.61;100593.12;4660441;63;21228;-83
2021/09/11 14:58:07;;;;;;;11.85;7.70;;;;;;;24.61;69.58;100609.77;4659241;63;21524;-83
2021/09/11 15:03:13;;;;;;;10.58;8.55;;;;;;;24.44;69.69;100605.29;4660637;63;21414;-84
2021/09/11 15:08:18;;;;;;;8.55;6.60;;;;;;;24.40;69.88;100597.83;4660246;63;21272;-86
2021/09/11 15:13:24;;;;;;;8.68;7.80;;;;;;;24.40;70.10;100600.01;4659062;63;21240;-82
2021/09/11 15:18:31;;;;;;;8.65;7.72;;;;;;;24.38;69.95;100592.63;4671266;62;21220;-82
2021/09/11 15:23:37;;;;;;;12.73;11.15;;;;;;;24.41;69.95;100592.73;4667684;62;21273;-82
2021/09/11 15:28:43;;;;;;;25.27;13.03;;;;;;;24.45;69.58;100593.44;4673984;62;21361;-82
2021/09/11 15:33:49;;;;;;;21.27;13.38;;;;;;;24.42;69.23;100589.82;4690319;63;22520;-79
2021/09/11 15:38:54;;;;;;;8.13;6.95;;;;;;;24.40;68.75;100590.55;4702866;62;21301;-83
2021/09/11 15:44:00;;;;;;;10.85;6.45;;;;;;;24.28;68.36;100594.08;4697219;63;21240;-82
2021/09/11 15:49:06;;;;;;;9.13;6.33;;;;;;;24.26;68.21;100601.56;4698217;62;21320;-80
2021/09/11 15:54:12;;;;;;;7.67;6.72;;;;;;;24.14;68.20;100604.81;4696859;63;21285;-84
2021/09/11 15:59:17;;;;;;;8.13;6.42;;;;;;;24.03;68.47;100607.29;4696933;63;21231;-86
2021/09/11 16:04:23;;;;;;;18.42;10.32;;;;;;;23.94;68.75;100608.01;4696680;63;21231;-83
2021/09/11 16:09:35;;;;;;;21.97;13.10;;;;;;;23.90;68.94;100603.20;4696265;62;22097;-79
2021/09/11 16:14:41;;;;;;;30.45;15.85;;;;;;;23.84;68.98;100598.92;4693518;62;21276;-79
2021/09/11 16:19:47;;;;;;;20.70;9.70;;;;;;;23.79;69.12;100600.08;4693420;63;21284;-82
2021/09/11 16:24:53;;;;;;;12.10;7.60;;;;;;;23.71;69.55;100599.41;4696818;63;21295;-84
2021/09/11 16:29:59;;;;;;;16.05;7.58;;;;;;;23.61;69.58;100602.49;4677762;61;22540;-83
2021/09/11 16:35:05;;;;;;;9.00;5.90;;;;;;;23.49;69.91;100594.63;4658230;63;21525;-84
2021/09/11 16:40:12;;;;;;;10.65;7.60;;;;;;;23.36;70.51;100589.17;4659852;63;21308;-82
2021/09/11 16:45:18;;;;;;;8.33;6.55;;;;;;;23.27;70.54;100592.55;4659672;63;21840;-82
2021/09/11 16:50:24;;;;;;;8.88;5.87;;;;;;;23.17;70.71;100583.98;4659597;63;21829;-84
2021/09/11 16:55:32;;;;;;;8.90;7.17;;;;;;;23.12;71.17;100594.02;4660291;63;21278;-81
2021/09/11 17:00:38;;;;;;;32.78;14.90;;;;;;;23.05;71.21;100612.05;4659847;62;21252;-82
2021/09/11 17:05:45;;;;;;;9.15;6.87;;;;;;;22.96;71.41;100614.56;4659553;63;21260;-83
2021/09/11 17:10:50;;;;;;;13.53;6.92;;;;;;;22.90;71.62;100615.38;4661718;62;21259;-82
2021/09/11 17:15:56;;;;;;;17.85;11.10;;;;;;;22.82;71.91;100620.89;4661154;63;21164;-81
2021/09/11 17:21:02;;;;;;;8.60;6.28;;;;;;;22.72;72.12;100621.73;4659742;63;21193;-83
2021/09/11 17:26:09;;;;;;;11.68;7.15;;;;;;;22.59;72.73;100629.72;4660350;63;21212;-82
2021/09/11 17:31:15;;;;;;;7.42;6.70;;;;;;;22.48;73.04;100629.70;4682692;62;21629;-82
2021/09/11 17:36:21;;;;;;;8.13;7.33;;;;;;;22.41;73.30;100625.61;4696819;63;21957;-83
2021/09/11 17:41:27;;;;;;;8.08;7.37;;;;;;;22.32;73.32;100626.75;4668409;63;21208;-82
2021/09/11 17:46:33;;;;;;;12.75;8.65;;;;;;;22.21;73.63;100624.58;4697033;63;21701;-81
2021/09/11 17:51:39;;;;;;;9.13;7.75;;;;;;;22.17;74.46;100632.72;4696568;63;21216;-79
2021/09/11 17:56:45;;;;;;;8.75;7.60;;;;;;;22.13;74.96;100637.36;4697000;63;21252;-81
2021/09/11 18:01:52;;;;;;;18.30;8.03;;;;;;;22.07;75.37;100641.13;4695684;63;21211;-79
2021/09/11 18:07:00;;;;;;;12.03;8.13;;;;;;;21.96;76.03;100646.15;4696795;63;21220;-80
2021/09/11 18:12:07;;;;;;;34.80;25.30;;;;;;;21.90;76.52;100650.42;4706753;62;21192;-80
2021/09/11 18:17:13;;;;;;;12.50;9.28;;;;;;;21.99;76.68;100656.06;4705691;63;21140;-80
2021/09/11 18:22:19;;;;;;;11.18;8.65;;;;;;;22.02;76.71;100654.31;4705582;63;21184;-80
2021/09/11 18:27:26;;;;;;;39.30;23.57;;;;;;;22.13;76.91;100658.39;4705412;63;21168;-80
2021/09/11 18:32:32;;;;;;;39.90;22.13;;;;;;;22.19;76.69;100671.59;4677470;61;21730;-80
2021/09/11 18:37:38;;;;;;;33.10;16.57;;;;;;;22.29;76.83;100673.48;4663388;63;21313;-80
2021/09/11 18:42:50;;;;;;;40.15;21.00;;;;;;;22.44;77.13;100676.45;4665968;63;21201;-79
2021/09/11 18:47:57;;;;;;;24.67;16.60;;;;;;;22.56;77.14;100684.02;4668676;63;21157;-81
2021/09/11 18:53:03;;;;;;;40.08;25.20;;;;;;;22.57;76.52;100685.17;4668615;63;21189;-81
2021/09/11 18:58:09;;;;;;;39.05;24.35;;;;;;;22.49;76.37;100692.02;4668670;63;21200;-81
2021/09/11 19:03:15;;;;;;;45.23;27.73;;;;;;;22.48;76.30;100692.20;4668545;63;21232;-80
2021/09/11 19:08:23;;;;;;;41.55;25.75;;;;;;;22.39;76.36;100691.51;4668466;63;21245;-81
2021/09/11 19:13:30;;;;;;;28.62;19.35;;;;;;;22.43;76.93;100688.77;4670423;62;21164;-80
2021/09/11 19:18:38;;;;;;;28.02;16.35;;;;;;;22.42;76.60;100693.83;4668382;63;21214;-81
2021/09/11 19:23:44;;;;;;;33.88;19.87;;;;;;;22.29;76.41;100691.84;4668429;63;21723;-81
2021/09/11 19:28:50;;;;;;;36.80;20.95;;;;;;;22.28;76.62;100698.25;4660793;63;21557;-81
2021/09/11 19:33:55;;;;;;;28.12;18.73;;;;;;;22.28;76.98;100697.41;4668263;62;21233;-81
2021/09/11 19:39:01;;;;;;;27.05;14.58;;;;;;;22.28;76.93;100698.25;4669127;63;21097;-81
2021/09/11 19:44:06;;;;;;;15.80;12.65;;;;;;;22.13;76.39;100705.53;4669610;63;21508;-86
2021/09/11 19:49:12;;;;;;;14.43;12.80;;;;;;;21.94;76.77;100705.58;4670496;63;21180;-88
2021/09/11 19:54:18;;;;;;;20.48;14.50;;;;;;;21.86;77.11;100709.70;4669359;63;21204;-87
2021/09/11 19:59:24;;;;;;;26.73;19.48;;;;;;;21.84;77.68;100711.78;4668887;63;22206;-84
2021/09/11 20:04:30;;;;;;;22.32;15.90;;;;;;;21.94;78.19;100712.83;4668978;63;21185;-86
2021/09/11 20:09:36;;;;;;;20.37;17.25;;;;;;;21.96;77.96;100711.62;4668795;63;21168;-87
2021/09/11 20:14:42;;;;;;;21.97;16.48;;;;;;;21.87;77.65;100706.51;4673364;62;21189;-86
2021/09/11 20:19:47;;;;;;;17.27;13.70;;;;;;;21.75;77.89;100702.12;4662141;63;21559;-86
2021/09/11 20:24:53;;;;;;;15.23;13.38;;;;;;;21.65;78.00;100697.03;4668487;63;21523;-84
2021/09/11 20:29:58;;;;;;;15.58;12.45;;;;;;;21.56;78.17;100701.33;4668840;61;21242;-86
2021/09/11 20:35:04;;;;;;;16.12;12.65;;;;;;;21.47;78.43;100696.56;4668406;63;21224;-88
2021/09/11 20:40:11;;;;;;;17.85;11.70;;;;;;;21.40;78.62;100692.42;4669269;63;22180;-87
2021/09/11 20:45:17;;;;;;;15.43;11.68;;;;;;;21.36;78.80;100695.17;4668966;63;21177;-87
2021/09/11 20:50:23;;;;;;;14.07;11.28;;;;;;;21.28;79.02;100701.97;4666896;63;21197;-87
2021/09/11 20:55:29;;;;;;;14.40;11.10;;;;;;;21.23;79.30;100707.09;4668540;63;21188;-87
2021/09/11 21:00:34;;;;;;;12.30;11.10;;;;;;;21.18;79.57;100708.61;4668626;63;21184;-89
2021/09/11 21:05:40;;;;;;;17.20;11.90;;;;;;;21.29;80.16;100707.68;4668780;63;21212;-83
2021/09/11 21:10:46;;;;;;;16.20;11.38;;;;;;;21.23;79.75;100708.44;4675173;62;21224;-83
2021/09/11 21:15:52;;;;;;;16.97;10.65;;;;;;;21.08;79.90;100705.66;4668053;63;21614;-83
2021/09/11 21:20:59;;;;;;;13.58;12.18;;;;;;;20.92;80.25;100704.49;4664622;63;21255;-82
2021/09/11 21:26:05;;;;;;;15.18;12.37;;;;;;;20.80;80.49;100697.84;4659972;63;21293;-83
2021/09/11 21:31:11;;;;;;;13.03;11.20;;;;;;;20.75;80.78;100700.77;4659806;62;21747;-82
2021/09/11 21:36:17;;;;;;;13.95;12.28;;;;;;;20.74;81.27;100699.94;4659941;63;21255;-83
2021/09/11 21:41:23;;;;;;;15.38;13.32;;;;;;;20.80;81.39;100707.26;4653812;63;22561;-83
2021/09/11 21:46:29;;;;;;;16.12;14.13;;;;;;;20.85;81.65;100707.56;4659874;63;21157;-83
2021/09/11 21:51:35;;;;;;;16.80;11.88;;;;;;;20.75;81.31;100708.33;4659559;63;21247;-82
2021/09/11 21:56:40;;;;;;;14.43;12.40;;;;;;;20.68;81.36;100706.85;4659628;63;21285;-83
2021/09/11 22:01:53;;;;;;;13.98;12.53;;;;;;;20.61;81.49;100703.73;4659293;63;21272;-83
2021/09/11 22:06:55;;;;;;;14.35;12.60;;;;;;;20.63;81.80;100701.67;4725325;62;21228;-83
2021/09/11 22:12:03;;;;;;;20.77;14.63;;;;;;;20.71;82.30;100698.95;4718207;62;21212;-85
2021/09/11 22:17:09;;;;;;;14.95;13.22;;;;;;;20.88;82.69;100696.45;4664216;63;21231;-85
2021/09/11 22:22:15;;;;;;;13.78;12.47;;;;;;;21.02;82.44;100698.84;4638748;63;21636;-85
2021/09/11 22:27:20;;;;;;;14.15;12.75;;;;;;;20.95;81.07;100703.27;4677650;63;22754;-84
2021/09/11 22:32:27;;;;;;;15.35;13.20;;;;;;;20.88;81.16;100704.52;4675141;63;21270;-85
2021/09/11 22:37:33;;;;;;;25.95;17.02;;;;;;;20.86;81.18;100703.02;4698798;63;22708;-84
2021/09/11 22:42:39;;;;;;;14.75;13.25;;;;;;;20.86;81.04;100698.98;4697659;63;21235;-84
2021/09/11 22:47:44;;;;;;;13.88;12.47;;;;;;;20.71;80.44;100701.63;4697483;63;21360;-86
2021/09/11 22:52:50;;;;;;;17.70;12.63;;;;;;;20.43;80.39;100691.94;4697959;63;21318;-83
2021/09/11 22:57:56;;;;;;;14.35;12.85;;;;;;;20.25;80.70;100691.34;4697684;63;21156;-84
2021/09/11 23:03:02;;;;;;;15.60;11.93;;;;;;;20.18;81.11;100697.08;4697338;63;21267;-84
2021/09/11 23:08:09;;;;;;;13.65;12.23;;;;;;;20.15;81.43;100685.38;4697394;63;21246;-85
2021/09/11 23:13:14;;;;;;;12.60;10.58;;;;;;;20.19;81.92;100678.62;4697337;63;21231;-84
2021/09/11 23:18:21;;;;;;;15.00;13.45;;;;;;;20.28;81.97;100685.13;4697656;63;21984;-84
2021/09/11 23:23:27;;;;;;;14.23;12.73;;;;;;;20.37;82.12;100685.92;4697740;63;21271;-84
2021/09/11 23:28:33;;;;;;;13.83;11.65;;;;;;;20.42;81.76;100686.73;4697432;63;21228;-85